Time,TemperatureF,DewpointF,PressureIn,WindDirection,WindDirectionDegrees,WindSpeedMPH,WindSpeedGustMPH,Humidity,HourlyPrecipIn,Conditions,Clouds,dailyrainin,SoftwareType,DateUTC
2013-09-10 00:23:00,70.0,68.0,29.86,WSW,238,1.0,3.0,95,0.00,,,0.13,,2013-09-10 05:23:00,
2013-09-10 00:53:00,70.0,68.0,29.87,WSW,243,0.0,4.0,95,0.00,,,0.13,,2013-09-10 05:53:00,
2013-09-10 01:12:00,70.0,68.0,29.86,SW,232,0.0,2.0,95,0.00,,,0.13,,2013-09-10 06:12:00,
2013-09-10 01:22:00,70.0,69.0,29.86,SW,233,0.0,2.0,96,0.00,,,0.13,,2013-09-10 06:22:00,
2013-09-10 01:43:00,70.0,69.0,29.87,SW,229,1.0,2.0,96,0.00,,,0.13,,2013-09-10 06:43:00,
2013-09-10 01:52:00,70.0,69.0,29.87,WSW,247,0.0,3.0,96,0.00,,,0.13,,2013-09-10 06:52:00,
2013-09-10 02:12:00,70.0,69.0,29.87,SSW,198,0.0,3.0,96,0.00,,,0.13,,2013-09-10 07:12:00,
2013-09-10 02:22:00,69.0,68.0,29.87,WSW,240,0.0,1.0,96,0.00,,,0.13,,2013-09-10 07:22:00,
2013-09-10 02:42:00,69.0,68.0,29.87,WSW,249,0.0,2.0,97,0.00,,,0.13,,2013-09-10 07:42:00,
2013-09-10 02:52:00,69.0,68.0,29.88,SW,225,0.0,2.0,97,0.00,,,0.13,,2013-09-10 07:52:00,
2013-09-10 03:12:00,69.0,68.0,29.88,WSW,255,1.0,3.0,97,0.00,,,0.13,,2013-09-10 08:12:00,
2013-09-10 03:22:00,69.0,68.0,29.87,SW,236,0.0,2.0,97,0.00,,,0.13,,2013-09-10 08:22:00,
2013-09-10 03:52:00,69.0,68.0,29.87,SW,217,0.0,1.0,98,0.00,,,0.13,,2013-09-10 08:52:00,
2013-09-10 04:11:00,69.0,68.0,29.87,SSW,193,0.0,4.0,98,0.00,,,0.13,,2013-09-10 09:11:00,
2013-09-10 04:21:00,69.0,68.0,29.87,SSW,194,0.0,2.0,98,0.00,,,0.13,,2013-09-10 09:21:00,
2013-09-10 04:43:00,69.0,68.0,29.87,SSW,210,0.0,3.0,98,0.00,,,0.13,,2013-09-10 09:43:00,
2013-09-10 04:54:00,70.0,69.0,29.87,SW,232,0.0,4.0,98,0.00,,,0.13,,2013-09-10 09:54:00,
2013-09-10 05:13:00,70.0,69.0,29.88,South,188,0.0,3.0,98,0.00,,,0.13,,2013-09-10 10:13:00,
2013-09-10 05:23:00,70.0,69.0,29.87,West,259,0.0,3.0,98,0.00,,,0.13,,2013-09-10 10:23:00,
2013-09-10 05:53:00,70.0,69.0,29.88,SSW,201,0.0,4.0,98,0.00,,,0.13,,2013-09-10 10:53:00,
2013-09-10 06:12:00,70.0,69.0,29.88,SSW,193,0.0,2.0,98,0.00,,,0.13,,2013-09-10 11:12:00,
2013-09-10 06:22:00,70.0,69.0,29.88,WSW,238,0.0,2.0,98,0.00,,,0.13,,2013-09-10 11:22:00,
2013-09-10 06:42:00,70.0,69.0,29.88,SW,226,0.0,2.0,98,0.00,,,0.13,,2013-09-10 11:42:00,
2013-09-10 06:52:00,70.0,69.0,29.88,SSW,213,0.0,3.0,98,0.00,,,0.13,,2013-09-10 11:52:00,
2013-09-10 07:12:00,70.0,69.0,29.88,SSW,197,0.0,2.0,98,0.00,,,0.13,,2013-09-10 12:12:00,
2013-09-10 07:22:00,70.0,69.0,29.89,SSE,159,0.0,2.0,98,0.00,,,0.13,,2013-09-10 12:22:00,
2013-09-10 07:42:00,70.0,70.0,29.90,SSW,204,0.0,2.0,99,0.00,,,0.13,,2013-09-10 12:42:00,
2013-09-10 07:52:00,70.0,70.0,29.90,South,180,1.0,2.0,99,0.00,,,0.13,,2013-09-10 12:52:00,
2013-09-10 08:11:00,71.0,71.0,29.91,WSW,250,0.0,3.0,99,0.00,,,0.13,,2013-09-10 13:11:00,
2013-09-10 08:21:00,71.0,71.0,29.91,South,188,1.0,4.0,99,0.00,,,0.13,,2013-09-10 13:21:00,
2013-09-10 08:42:00,71.0,71.0,29.91,ESE,123,1.0,4.0,99,0.00,,,0.13,,2013-09-10 13:42:00,
2013-09-10 08:52:00,71.0,71.0,29.92,SE,143,2.0,7.0,99,0.00,,,0.13,,2013-09-10 13:52:00,
2013-09-10 09:11:00,71.0,71.0,29.92,SSE,157,2.0,6.0,99,0.00,,,0.13,,2013-09-10 14:11:00,
2013-09-10 09:21:00,71.0,71.0,29.93,SSW,194,1.0,6.0,99,0.00,,,0.13,,2013-09-10 14:21:00,
2013-09-10 09:52:00,72.0,71.0,29.93,SSW,194,2.0,6.0,98,0.00,,,0.13,,2013-09-10 14:52:00,
2013-09-10 10:11:00,73.0,72.0,29.94,SSW,198,2.0,6.0,97,0.00,,,0.13,,2013-09-10 15:11:00,
2013-09-10 10:22:00,74.0,72.0,29.94,SSE,153,2.0,6.0,94,0.00,,,0.13,,2013-09-10 15:22:00,
2013-09-10 10:43:00,75.0,72.0,29.94,South,186,2.0,7.0,91,0.00,,,0.13,,2013-09-10 15:43:00,
2013-09-10 10:54:00,75.0,72.0,29.94,South,186,2.0,7.0,91,0.00,,,0.13,,2013-09-10 15:54:00,
2013-09-10 11:13:00,77.0,72.0,29.95,SSE,162,2.0,8.0,86,0.00,,,0.13,,2013-09-10 16:13:00,
2013-09-10 11:23:00,78.0,72.0,29.95,SSW,204,3.0,7.0,83,0.00,,,0.13,,2013-09-10 16:23:00,
2013-09-10 11:43:00,80.0,72.0,29.95,South,186,3.0,10.0,78,0.00,,,0.13,,2013-09-10 16:43:00,
2013-09-10 11:53:00,81.0,73.0,29.95,SE,125,4.0,10.0,77,0.00,,,0.13,,2013-09-10 16:53:00,
2013-09-10 12:12:00,80.0,72.0,29.95,WSW,248,3.0,11.0,77,0.00,,,0.13,,2013-09-10 17:12:00,
2013-09-10 12:23:00,81.0,72.0,29.95,South,181,3.0,11.0,73,0.00,,,0.13,,2013-09-10 17:23:00,
2013-09-10 12:52:00,82.0,71.0,29.94,ESE,112,2.0,10.0,69,0.00,,,0.13,,2013-09-10 17:52:00,
2013-09-10 13:12:00,83.0,73.0,29.94,SE,136,4.0,10.0,71,0.00,,,0.13,,2013-09-10 18:12:00,
2013-09-10 13:21:00,82.0,71.0,29.93,SSE,167,5.0,11.0,70,0.00,,,0.13,,2013-09-10 18:21:00,
2013-09-10 13:43:00,83.0,72.0,29.93,SSE,159,5.0,10.0,70,0.00,,,0.13,,2013-09-10 18:43:00,
2013-09-10 13:52:00,84.0,72.0,29.92,SW,224,3.0,10.0,68,0.00,,,0.13,,2013-09-10 18:52:00,
2013-09-10 14:12:00,83.0,71.0,29.92,SSW,212,3.0,8.0,67,0.00,,,0.13,,2013-09-10 19:12:00,
2013-09-10 14:22:00,83.0,71.0,29.91,SE,132,4.0,9.0,68,0.00,,,0.13,,2013-09-10 19:22:00,
2013-09-10 14:42:00,85.0,71.0,29.91,SW,235,2.0,8.0,64,0.00,,,0.13,,2013-09-10 19:42:00,
2013-09-10 14:52:00,87.0,72.0,29.90,SSE,160,5.0,10.0,61,0.00,,,0.13,,2013-09-10 19:52:00,
2013-09-10 15:12:00,87.0,72.0,29.89,SW,214,3.0,8.0,62,0.00,,,0.13,,2013-09-10 20:12:00,
2013-09-10 15:21:00,87.0,70.0,29.89,WSW,249,2.0,7.0,57,0.00,,,0.13,,2013-09-10 20:21:00,
2013-09-10 15:42:00,89.0,70.0,29.88,SW,222,3.0,12.0,53,0.00,,,0.13,,2013-09-10 20:42:00,
2013-09-10 15:52:00,90.0,70.0,29.88,SSW,198,2.0,8.0,52,0.00,,,0.13,,2013-09-10 20:52:00,
2013-09-10 16:23:00,90.0,69.0,29.86,SSW,208,5.0,12.0,50,0.00,,,0.13,,2013-09-10 21:23:00,
2013-09-10 16:44:00,90.0,69.0,29.86,SSE,159,5.0,12.0,51,0.00,,,0.13,,2013-09-10 21:44:00,
2013-09-10 16:54:00,90.0,69.0,29.85,SSE,162,5.0,15.0,51,0.00,,,0.13,,2013-09-10 21:54:00,
2013-09-10 17:14:00,86.0,70.0,29.86,SE,125,5.0,14.0,60,0.00,,,0.13,,2013-09-10 22:14:00,
2013-09-10 17:24:00,87.0,70.0,29.87,South,179,5.0,11.0,57,0.00,,,0.13,,2013-09-10 22:24:00,
2013-09-10 17:42:00,85.0,70.0,29.87,SSW,193,6.0,14.0,61,0.00,,,0.13,,2013-09-10 22:42:00,
2013-09-10 17:54:00,83.0,70.0,29.87,SSW,195,4.0,12.0,65,0.00,,,0.13,,2013-09-10 22:54:00,
2013-09-10 18:03:00,83.0,70.0,29.87,SSW,195,4.0,12.0,65,0.00,,,0.13,,2013-09-10 23:03:00,
2013-09-10 18:13:00,83.0,70.0,29.87,SSW,195,4.0,12.0,65,0.00,,,0.13,,2013-09-10 23:13:00,
2013-09-10 18:23:00,80.0,68.0,29.89,SW,215,3.0,13.0,68,0.00,,,0.13,,2013-09-10 23:23:00,
2013-09-10 18:53:00,79.0,69.0,29.89,WSW,242,3.0,8.0,72,0.00,,,0.01,,2013-09-10 23:53:00,
2013-09-10 19:11:00,79.0,70.0,29.90,WSW,246,2.0,7.0,75,0.00,,,0.01,,2013-09-11 00:11:00,
2013-09-10 19:22:00,78.0,70.0,29.89,SSW,210,2.0,8.0,76,0.00,,,0.01,,2013-09-11 00:22:00,
2013-09-10 19:42:00,78.0,70.0,29.90,WSW,242,1.0,5.0,77,0.00,,,0.00,,2013-09-11 00:42:00,
2013-09-10 19:52:00,77.0,71.0,29.89,WSW,240,1.0,5.0,81,0.00,,,0.00,,2013-09-11 00:52:00,
2013-09-10 20:11:00,77.0,71.0,29.89,West,273,1.0,6.0,81,0.00,,,0.00,,2013-09-11 01:11:00,
2013-09-10 20:21:00,76.0,70.0,29.90,WSW,249,1.0,4.0,82,0.00,,,0.00,,2013-09-11 01:21:00,
2013-09-10 20:42:00,76.0,70.0,29.90,SW,235,1.0,3.0,83,0.00,,,0.00,,2013-09-11 01:42:00,
2013-09-10 20:53:00,75.0,70.0,29.90,SSW,198,0.0,2.0,84,0.00,,,0.00,,2013-09-11 01:53:00,
2013-09-10 21:22:00,74.0,70.0,29.91,SSW,200,0.0,2.0,86,0.00,,,0.00,,2013-09-11 02:22:00,
2013-09-10 21:43:00,74.0,70.0,29.92,SW,226,0.0,2.0,87,0.00,,,0.00,,2013-09-11 02:43:00,
2013-09-10 21:52:00,73.0,70.0,29.92,WSW,238,0.0,0.0,89,0.00,,,0.00,,2013-09-11 02:52:00,
2013-09-10 22:12:00,73.0,70.0,29.93,WSW,238,0.0,0.0,90,0.00,,,0.00,,2013-09-11 03:12:00,
2013-09-10 22:22:00,72.0,69.0,29.93,WSW,238,0.0,0.0,91,0.00,,,0.00,,2013-09-11 03:22:00,
2013-09-10 22:44:00,72.0,70.0,29.93,WSW,238,0.0,0.0,92,0.00,,,0.00,,2013-09-11 03:44:00,
2013-09-10 22:54:00,72.0,70.0,29.93,SW,221,0.0,1.0,92,0.00,,,0.00,,2013-09-11 03:54:00,
2013-09-10 23:14:00,71.0,69.0,29.94,SW,226,0.0,1.0,93,0.00,,,0.00,,2013-09-11 04:14:00,
2013-09-10 23:24:00,71.0,69.0,29.94,SW,230,0.0,1.0,93,0.00,,,0.00,,2013-09-11 04:24:00,
2013-09-10 23:43:00,72.0,70.0,29.94,SW,234,0.0,2.0,94,0.00,,,0.00,,2013-09-11 04:43:00,
2013-09-10 23:54:00,72.0,70.0,29.94,WSW,243,0.0,3.0,93,0.00,,,0.00,,2013-09-11 04:54:00,